createdAt,value
2019-04-26T00:01:27.087Z,27.23
2019-04-26T00:06:28.905Z,25.33
2019-04-26T00:11:32.494Z,21.23
2019-04-26T00:16:46.314Z,21.00
2019-04-26T00:21:47.799Z,32.60
2019-04-26T00:26:49.630Z,20.83
2019-04-26T00:31:51.410Z,22.67
2019-04-26T00:36:53.052Z,24.97
2019-04-26T00:41:54.595Z,24.67
2019-04-26T00:46:57.754Z,23.63
2019-04-26T00:51:59.628Z,30.87
2019-04-26T00:57:01.800Z,36.30
2019-04-26T01:02:08.682Z,39.63
2019-04-26T01:07:10.320Z,27.63
2019-04-26T01:12:12.233Z,31.40
2019-04-26T01:17:13.900Z,32.63
2019-04-26T01:22:23.329Z,26.40
2019-04-26T01:27:27.708Z,36.50
2019-04-26T01:32:30.094Z,30.10
2019-04-26T01:37:31.726Z,39.00
2019-04-26T01:42:44.318Z,29.63
2019-04-26T01:47:47.741Z,21.50
2019-04-26T01:52:49.458Z,18.13
2019-04-26T01:57:51.300Z,23.87
2019-04-26T02:02:57.751Z,35.33
2019-04-26T02:07:59.314Z,32.03
2019-04-26T02:13:01.785Z,20.57
2019-04-26T02:18:03.956Z,25.10
2019-04-26T02:23:07.334Z,27.23
2019-04-26T02:28:09.492Z,22.20
2019-04-26T02:33:11.326Z,18.60
2019-04-26T02:38:12.878Z,25.07
2019-04-26T02:43:15.866Z,35.23
2019-04-26T02:48:37.941Z,29.20
2019-04-26T02:53:58.230Z,19.23
2019-04-26T02:59:03.336Z,21.20
2019-04-26T03:04:04.958Z,17.10
2019-04-26T03:09:07.206Z,23.80
2019-04-26T03:14:12.017Z,25.10
2019-04-26T03:19:39.609Z,22.23
2019-04-26T03:25:16.875Z,23.53
2019-04-26T03:30:24.711Z,22.27
2019-04-26T03:35:54.475Z,24.07
2019-04-26T03:41:05.490Z,28.23
2019-04-26T03:46:30.318Z,17.23
2019-04-26T03:51:54.407Z,21.67
2019-04-26T03:57:17.017Z,20.03
2019-04-26T04:02:30.496Z,27.33
2019-04-26T04:07:39.538Z,34.00
2019-04-26T04:12:49.903Z,21.53
2019-04-26T04:18:03.070Z,24.83
2019-04-26T04:23:08.996Z,24.13
2019-04-26T04:28:39.838Z,25.73
2019-04-26T04:34:02.519Z,26.73
2019-04-26T04:39:13.089Z,22.03
2019-04-26T04:44:28.451Z,20.90
2019-04-26T04:49:48.975Z,24.97
2019-04-26T04:55:08.147Z,17.40
2019-04-26T05:00:38.249Z,25.37
2019-04-26T05:06:09.393Z,22.13
2019-04-26T05:11:37.949Z,25.67
2019-04-26T05:17:10.180Z,25.10
2019-04-26T05:22:38.841Z,17.30
2019-04-26T05:27:55.218Z,14.63
2019-04-26T05:33:00.841Z,21.93
2019-04-26T05:38:25.982Z,27.03
2019-04-26T05:43:54.421Z,29.60
2019-04-26T05:49:36.980Z,24.80
2019-04-26T05:55:07.260Z,26.57
2019-04-26T06:00:32.925Z,25.97
2019-04-26T06:05:58.574Z,36.77
2019-04-26T06:11:04.962Z,33.20
2019-04-26T06:16:35.455Z,44.07
2019-04-26T06:21:53.717Z,31.17
2019-04-26T06:27:20.032Z,22.50
2019-04-26T06:32:28.193Z,32.77
2019-04-26T06:37:55.358Z,27.07
2019-04-26T06:43:10.219Z,33.10
2019-04-26T06:48:29.893Z,37.27
2019-04-26T06:53:38.701Z,39.30
2019-04-26T06:59:17.265Z,63.63
2019-04-26T07:04:45.253Z,44.10
2019-04-26T07:10:00.140Z,47.87
2019-04-26T07:15:28.453Z,36.13
2019-04-26T07:20:35.235Z,37.83
2019-04-26T07:26:14.430Z,38.83
2019-04-26T07:31:54.903Z,32.70
2019-04-26T07:37:20.030Z,27.63
2019-04-26T07:42:43.996Z,43.83
2019-04-26T07:48:14.635Z,33.90
2019-04-26T07:53:35.493Z,32.67
2019-04-26T07:59:07.297Z,49.50
2019-04-26T08:04:14.735Z,53.43
2019-04-26T08:09:27.018Z,40.17
2019-04-26T08:14:45.127Z,22.20
2019-04-26T08:19:53.555Z,31.47
2019-04-26T08:24:58.055Z,26.00
2019-04-26T08:30:03.336Z,27.30
2019-04-26T08:35:16.869Z,57.77
2019-04-26T08:40:23.299Z,33.53
2019-04-26T08:45:32.312Z,39.50
2019-04-26T08:50:36.373Z,60.47
2019-04-26T08:55:38.346Z,39.83
2019-04-26T09:00:52.736Z,32.83
2019-04-26T09:05:57.498Z,94.97
2019-04-26T09:11:00.938Z,95.87
2019-04-26T09:16:08.783Z,97.83
2019-04-26T09:21:13.431Z,100.43
2019-04-26T09:26:35.198Z,85.03
2019-04-26T09:31:39.568Z,52.60
2019-04-26T09:36:43.298Z,68.73
2019-04-26T09:41:49.972Z,73.77
2019-04-26T09:52:31.440Z,71.47
2019-04-26T09:57:53.481Z,104.00
2019-04-26T10:02:58.948Z,79.50
2019-04-26T10:08:08.395Z,80.13
2019-04-26T10:13:23.993Z,100.37
2019-04-26T10:18:28.657Z,131.40
2019-04-26T10:23:34.628Z,121.20
2019-04-26T10:28:40.471Z,102.17
2019-04-26T10:33:46.475Z,81.93
2019-04-26T10:38:54.462Z,82.47
2019-04-26T10:43:58.777Z,56.87
2019-04-26T10:49:09.093Z,58.83
2019-04-26T10:54:10.127Z,55.53
2019-04-26T10:59:16.767Z,47.87
2019-04-26T11:04:19.425Z,37.50
2019-04-26T11:09:22.397Z,35.97
2019-04-26T11:14:42.549Z,38.60
2019-04-26T11:19:46.711Z,43.70
2019-04-26T11:24:50.151Z,34.67
2019-04-26T11:29:54.281Z,30.83
2019-04-26T11:34:58.809Z,42.43
2019-04-26T11:40:00.371Z,47.77
2019-04-26T11:45:14.195Z,43.07
2019-04-26T11:50:16.315Z,42.73
2019-04-26T11:55:20.532Z,39.63
2019-04-26T12:00:27.443Z,39.70
2019-04-26T12:05:35.198Z,35.57
2019-04-26T12:10:40.508Z,32.13
2019-04-26T12:15:43.806Z,32.73
2019-04-26T12:20:44.140Z,29.60
2019-04-26T12:25:48.098Z,36.37
2019-04-26T12:30:49.557Z,31.17
2019-04-26T12:35:56.947Z,43.60
2019-04-26T12:40:56.834Z,32.90
2019-04-26T12:46:00.402Z,34.90
2019-04-26T12:51:02.089Z,39.13
2019-04-26T12:56:03.728Z,33.63
2019-04-26T13:01:07.962Z,25.87
2019-04-26T13:06:15.424Z,24.80
2019-04-26T13:11:24.966Z,24.83
2019-04-26T13:16:28.435Z,28.63
2019-04-26T13:21:33.191Z,21.83
2019-04-26T13:26:37.313Z,27.50
2019-04-26T13:31:40.855Z,16.07
2019-04-26T13:36:43.989Z,15.80
2019-04-26T13:41:46.429Z,11.73
2019-04-26T13:46:58.738Z,12.07
2019-04-26T13:52:03.008Z,9.40
2019-04-26T13:57:06.215Z,8.87
2019-04-26T14:02:11.759Z,5.97
2019-04-26T14:07:11.792Z,4.20
2019-04-26T14:12:18.750Z,6.47
2019-04-26T14:17:26.042Z,4.27
2019-04-26T14:22:31.263Z,5.67
2019-04-26T14:27:34.908Z,2.83
2019-04-26T14:32:36.473Z,3.53
2019-04-26T14:37:37.970Z,2.53
2019-04-26T14:42:46.997Z,5.13
2019-04-26T14:48:00.063Z,8.53
2019-04-26T14:53:02.462Z,6.83
2019-04-26T14:58:06.202Z,6.57
2019-04-26T15:03:12.334Z,9.73
2019-04-26T15:08:13.987Z,10.20
2019-04-26T15:13:20.747Z,12.70
2019-04-26T15:18:25.493Z,10.33
2019-04-26T15:23:30.631Z,11.20
2019-04-26T15:28:33.154Z,12.67
2019-04-26T15:33:36.034Z,12.57
2019-04-26T15:38:41.691Z,12.30
2019-04-26T15:43:50.283Z,17.40
2019-04-26T15:48:55.621Z,13.73
2019-04-26T15:53:57.278Z,14.43
2019-04-26T15:58:58.709Z,19.63
2019-04-26T16:04:04.390Z,24.40
2019-04-26T16:09:07.220Z,24.43
2019-04-26T16:14:08.744Z,29.33
2019-04-26T16:19:13.004Z,32.60
2019-04-26T16:24:14.841Z,34.73
2019-04-26T16:29:19.713Z,31.93
2019-04-26T16:34:26.786Z,37.90
2019-04-26T16:39:32.834Z,32.30
2019-04-26T16:44:33.529Z,36.90
2019-04-26T16:49:41.888Z,36.53
2019-04-26T16:54:39.129Z,38.27
2019-04-26T16:59:49.004Z,37.30
2019-04-26T17:04:44.826Z,40.73
2019-04-26T17:10:03.141Z,39.77
2019-04-26T17:14:52.539Z,41.50
2019-04-26T17:20:17.796Z,41.23
2019-04-26T17:25:32.133Z,41.87
2019-04-26T17:30:40.992Z,45.00
2019-04-26T17:35:40.936Z,45.33
2019-04-26T17:40:42.545Z,39.03
2019-04-26T17:45:44.341Z,40.80
2019-04-26T17:50:45.923Z,42.20
2019-04-26T17:55:52.894Z,45.53
2019-04-26T18:00:51.519Z,38.50
2019-04-26T18:05:57.030Z,51.00
2019-04-26T18:10:57.587Z,51.43
2019-04-26T18:15:59.140Z,50.03
2019-04-26T18:21:19.165Z,45.13
2019-04-26T18:26:21.533Z,40.27
2019-04-26T18:31:28.948Z,46.13
2019-04-26T18:36:31.397Z,56.80
2019-04-26T18:41:30.767Z,63.17
2019-04-26T18:46:40.048Z,74.50
2019-04-26T18:51:48.026Z,86.27
2019-04-26T18:56:47.957Z,76.80
2019-04-26T19:01:49.689Z,44.67
2019-04-26T19:06:53.713Z,33.00
2019-04-26T19:11:56.206Z,26.37
2019-04-26T19:17:05.811Z,24.73
2019-04-26T19:22:15.924Z,22.53
2019-04-26T19:27:14.146Z,22.97
2019-04-26T19:32:15.792Z,25.80
2019-04-26T19:37:17.371Z,33.27
2019-04-26T19:42:18.963Z,22.83
2019-04-26T19:47:39.468Z,33.23
2019-04-26T19:52:47.294Z,28.37
2019-04-26T19:58:09.707Z,27.43
2019-04-26T20:03:13.451Z,46.00
2019-04-26T20:08:16.374Z,28.27
2019-04-26T20:13:17.932Z,32.77
2019-04-26T20:18:21.354Z,39.63
2019-04-26T20:23:24.082Z,43.53
2019-04-26T20:28:25.664Z,38.37
2019-04-26T20:33:31.276Z,40.30
2019-04-26T20:38:35.749Z,41.20
2019-04-26T20:43:36.268Z,42.53
2019-04-26T20:48:39.490Z,48.03
2019-04-26T20:53:43.562Z,47.77
2019-04-26T20:58:47.110Z,56.23
2019-04-26T21:03:48.674Z,66.87
2019-04-26T21:08:54.030Z,71.07
2019-04-26T21:14:03.361Z,78.30
2019-04-26T21:19:02.820Z,73.33
2019-04-26T21:24:05.754Z,88.83
2019-04-26T21:29:13.435Z,89.03
2019-04-26T21:34:24.624Z,133.97
2019-04-26T21:39:47.585Z,86.50
2019-04-26T21:44:52.437Z,85.97
2019-04-26T21:49:58.673Z,77.07
2019-04-26T21:54:56.487Z,106.83
2019-04-26T21:59:58.107Z,103.30
2019-04-26T22:04:59.751Z,104.47
2019-04-26T22:10:09.399Z,122.40
2019-04-26T22:15:29.518Z,106.13
2019-04-26T22:20:44.816Z,118.73
2019-04-26T22:25:47.852Z,128.67
2019-04-26T22:30:49.694Z,114.80
2019-04-26T22:35:55.298Z,100.50
2019-04-26T22:40:56.283Z,103.47
2019-04-26T22:45:59.851Z,131.63
2019-04-26T22:51:04.451Z,115.40
2019-04-26T22:56:05.452Z,145.40
2019-04-26T23:01:07.334Z,133.47
2019-04-26T23:06:11.663Z,164.37
2019-04-26T23:11:13.484Z,126.57
2019-04-26T23:16:20.047Z,93.87
2019-04-26T23:21:29.236Z,48.77
2019-04-26T23:26:30.857Z,43.63
2019-04-26T23:31:33.482Z,154.53
2019-04-26T23:36:35.603Z,130.77
2019-04-26T23:41:37.561Z,170.10
2019-04-26T23:46:40.660Z,70.27
2019-04-26T23:51:45.742Z,113.33
2019-04-26T23:56:46.451Z,132.17
